createdAt,value
2018-07-11T00:00:08.314Z,5.70
2018-07-11T00:02:35.425Z,6.20
2018-07-11T00:05:02.808Z,5.47
2018-07-11T00:07:29.907Z,5.80
2018-07-11T00:09:57.021Z,5.30
2018-07-11T00:12:24.185Z,5.80
2018-07-11T00:14:51.366Z,5.23
2018-07-11T00:17:18.384Z,5.20
2018-07-11T00:19:45.692Z,5.37
2018-07-11T00:22:12.829Z,4.80
2018-07-11T00:24:39.941Z,5.53
2018-07-11T00:27:07.311Z,5.63
2018-07-11T00:29:34.653Z,4.90
2018-07-11T00:32:01.766Z,5.30
2018-07-11T00:34:28.868Z,5.60
2018-07-11T00:36:55.985Z,5.20
2018-07-11T00:39:23.104Z,5.03
2018-07-11T00:41:50.208Z,5.43
2018-07-11T00:44:17.399Z,5.20
2018-07-11T00:46:44.504Z,5.27
2018-07-11T00:49:11.672Z,5.30
2018-07-11T00:51:39.161Z,5.40
2018-07-11T00:54:06.364Z,5.50
2018-07-11T00:56:33.482Z,5.20
2018-07-11T00:59:03.277Z,5.23
2018-07-11T01:01:30.389Z,5.30
2018-07-11T01:03:57.537Z,5.20
2018-07-11T01:06:24.651Z,5.00
2018-07-11T01:08:52.769Z,5.07
2018-07-11T01:11:19.877Z,5.13
2018-07-11T01:13:48.564Z,4.70
2018-07-11T01:16:17.548Z,4.97
2018-07-11T01:18:50.264Z,5.00
2018-07-11T01:21:17.372Z,4.80
2018-07-11T01:23:44.449Z,5.00
2018-07-11T01:26:11.648Z,4.70
2018-07-11T01:28:38.745Z,5.40
2018-07-11T01:31:12.644Z,4.97
2018-07-11T01:33:39.732Z,5.60
2018-07-11T01:36:06.849Z,4.67
2018-07-11T01:38:33.952Z,5.07
2018-07-11T01:41:01.094Z,5.00
2018-07-11T01:43:28.184Z,4.47
2018-07-11T01:45:55.292Z,5.30
2018-07-11T01:48:22.438Z,4.80
2018-07-11T01:50:49.553Z,4.83
2018-07-11T01:53:16.665Z,5.20
2018-07-11T01:55:43.790Z,5.00
2018-07-11T01:58:10.892Z,5.60
2018-07-11T02:00:38.256Z,4.80
2018-07-11T02:03:05.393Z,4.90
2018-07-11T02:05:32.509Z,4.93
2018-07-11T02:07:59.626Z,5.17
2018-07-11T02:10:26.953Z,5.40
2018-07-11T02:12:54.044Z,5.30
2018-07-11T02:15:21.149Z,5.03
2018-07-11T02:17:48.253Z,4.93
2018-07-11T02:20:16.026Z,4.73
2018-07-11T02:22:43.132Z,5.20
2018-07-11T02:25:10.636Z,4.90
2018-07-11T02:27:37.818Z,4.97
2018-07-11T02:30:04.925Z,5.37
2018-07-11T02:32:33.764Z,4.67
2018-07-11T02:35:00.868Z,4.90
2018-07-11T02:37:28.253Z,4.87
2018-07-11T02:39:55.333Z,4.90
2018-07-11T02:42:22.443Z,4.77
2018-07-11T02:44:49.541Z,4.90
2018-07-11T02:47:22.090Z,4.97
2018-07-11T02:49:49.541Z,5.40
2018-07-11T02:52:16.729Z,5.03
2018-07-11T02:54:43.837Z,4.87
2018-07-11T02:57:10.973Z,5.10
2018-07-11T02:59:38.227Z,5.20
2018-07-11T03:02:05.428Z,5.10
2018-07-11T03:04:32.533Z,5.10
2018-07-11T03:06:59.637Z,5.20
2018-07-11T03:09:26.720Z,4.80
2018-07-11T03:11:53.829Z,4.53
2018-07-11T03:14:20.913Z,5.13
2018-07-11T03:16:48.445Z,4.97
2018-07-11T03:19:15.537Z,5.30
2018-07-11T03:21:42.638Z,4.80
2018-07-11T03:24:09.749Z,5.60
2018-07-11T03:26:36.942Z,5.00
2018-07-11T03:29:04.053Z,4.60
2018-07-11T03:31:31.162Z,5.67
2018-07-11T03:33:58.280Z,4.90
2018-07-11T03:36:25.392Z,5.07
2018-07-11T03:38:52.769Z,4.87
2018-07-11T03:41:21.177Z,5.60
2018-07-11T03:43:48.284Z,5.23
2018-07-11T03:46:15.384Z,5.33
2018-07-11T03:48:42.600Z,5.20
2018-07-11T03:51:09.692Z,5.40
2018-07-11T03:53:36.843Z,5.80
2018-07-11T03:56:03.938Z,6.00
2018-07-11T03:58:31.025Z,6.13
2018-07-11T04:00:58.112Z,5.63
2018-07-11T04:03:25.192Z,7.13
2018-07-11T04:05:52.288Z,6.13
2018-07-11T04:08:19.376Z,6.47
2018-07-11T04:10:46.497Z,8.77
2018-07-11T04:13:16.075Z,6.97
2018-07-11T04:15:43.140Z,7.00
2018-07-11T04:18:14.603Z,7.20
2018-07-11T04:20:41.765Z,6.60
2018-07-11T04:23:08.893Z,7.40
2018-07-11T04:25:36.069Z,6.97
2018-07-11T04:28:03.306Z,6.77
2018-07-11T04:30:30.446Z,6.50
2018-07-11T04:32:57.565Z,6.43
2018-07-11T04:35:24.675Z,6.70
2018-07-11T04:37:51.802Z,7.00
2018-07-11T04:40:18.909Z,6.73
2018-07-11T04:42:46.049Z,6.67
2018-07-11T04:45:13.162Z,6.80
2018-07-11T04:47:40.276Z,6.60
2018-07-11T04:50:07.364Z,7.00
2018-07-11T04:52:34.525Z,7.17
2018-07-11T04:55:01.593Z,7.63
2018-07-11T04:57:28.705Z,7.43
2018-07-11T04:59:55.879Z,7.50
2018-07-11T05:02:22.991Z,7.83
2018-07-11T05:04:50.202Z,8.73
2018-07-11T05:07:17.333Z,8.00
2018-07-11T05:09:44.404Z,8.50
2018-07-11T05:12:11.498Z,9.50
2018-07-11T05:14:38.580Z,9.50
2018-07-11T05:17:05.673Z,9.67
2018-07-11T05:19:32.881Z,10.30
2018-07-11T05:21:59.992Z,10.20
2018-07-11T05:24:27.083Z,11.00
2018-07-11T05:26:54.299Z,10.97
2018-07-11T05:29:21.389Z,11.03
2018-07-11T05:31:48.504Z,11.37
2018-07-11T05:34:15.669Z,10.03
2018-07-11T05:36:42.906Z,11.17
2018-07-11T05:39:10.065Z,11.13
2018-07-11T05:41:37.205Z,11.80
2018-07-11T05:44:04.323Z,11.17
2018-07-11T05:46:32.838Z,12.03
2018-07-11T05:48:59.977Z,11.87
2018-07-11T05:51:27.096Z,11.43
2018-07-11T05:53:54.220Z,11.23
2018-07-11T05:56:21.368Z,11.70
2018-07-11T05:58:48.619Z,13.60
2018-07-11T06:01:15.709Z,12.20
2018-07-11T06:03:42.797Z,12.63
2018-07-11T06:06:09.907Z,13.90
2018-07-11T06:08:37.050Z,13.10
2018-07-11T06:11:07.145Z,13.67
2018-07-11T06:13:34.258Z,15.50
2018-07-11T06:16:01.382Z,16.10
2018-07-11T06:18:28.515Z,15.57
2018-07-11T06:20:55.864Z,15.37
2018-07-11T06:23:23.130Z,15.80
2018-07-11T06:25:50.192Z,16.83
2018-07-11T06:28:17.308Z,17.27
2018-07-11T06:30:44.409Z,17.70
2018-07-11T06:33:11.509Z,17.83
2018-07-11T06:35:38.664Z,17.60
2018-07-11T06:38:05.763Z,19.03
2018-07-11T06:40:32.878Z,17.30
2018-07-11T06:43:00.004Z,18.40
2018-07-11T06:45:27.089Z,20.63
2018-07-11T06:47:54.241Z,20.60
2018-07-11T06:50:21.288Z,19.70
2018-07-11T06:52:48.388Z,22.20
2018-07-11T06:55:15.485Z,19.13
2018-07-11T06:57:42.644Z,20.80
2018-07-11T07:00:09.700Z,21.40
2018-07-11T07:02:36.835Z,21.20
2018-07-11T07:05:03.956Z,21.47
2018-07-11T07:07:31.063Z,22.70
2018-07-11T07:09:58.146Z,24.23
2018-07-11T07:12:25.277Z,22.93
2018-07-11T07:14:52.382Z,22.70
2018-07-11T07:17:19.477Z,21.40
2018-07-11T07:19:46.579Z,20.47
2018-07-11T07:22:13.704Z,20.47
2018-07-11T07:24:40.894Z,21.50
2018-07-11T07:27:08.233Z,21.60
2018-07-11T07:29:35.337Z,22.13
2018-07-11T07:32:02.463Z,21.10
2018-07-11T07:34:29.587Z,21.67
2018-07-11T07:36:56.693Z,21.93
2018-07-11T07:39:23.800Z,20.30
2018-07-11T07:41:50.902Z,21.80
2018-07-11T07:44:18.041Z,20.10
2018-07-11T07:46:50.550Z,20.50
2018-07-11T07:49:17.637Z,20.73
2018-07-11T07:51:44.757Z,19.40
2018-07-11T07:54:11.940Z,19.50
2018-07-11T07:56:39.065Z,21.20
2018-07-11T07:59:06.181Z,19.60
2018-07-11T08:01:33.337Z,21.40
2018-07-11T08:04:00.441Z,21.13
2018-07-11T08:06:27.536Z,20.70
2018-07-11T08:08:54.633Z,20.63
2018-07-11T08:11:21.750Z,21.03
2018-07-11T08:13:48.858Z,21.80
2018-07-11T08:16:15.958Z,20.40
2018-07-11T08:18:43.073Z,19.50
2018-07-11T08:21:10.169Z,19.60
2018-07-11T08:23:43.060Z,19.10
2018-07-11T08:26:15.919Z,19.77
2018-07-11T08:29:16.153Z,19.30
2018-07-11T08:31:46.693Z,20.00
2018-07-11T08:36:23.957Z,19.50
2018-07-11T08:39:00.913Z,18.73
2018-07-11T08:41:33.641Z,17.70
2018-07-11T08:44:06.480Z,19.80
2018-07-11T08:48:43.006Z,19.57
2018-07-11T08:51:20.481Z,18.10
2018-07-11T08:53:57.206Z,18.50
2018-07-11T08:56:29.175Z,18.30
2018-07-11T08:59:01.813Z,18.20
2018-07-11T09:02:35.582Z,16.70
2018-07-11T09:07:17.366Z,18.70
2018-07-11T09:09:53.809Z,17.10
2018-07-11T09:12:26.541Z,17.40
2018-07-11T09:15:06.182Z,18.20
2018-07-11T09:17:39.224Z,16.20
2018-07-11T09:20:14.738Z,16.90
2018-07-11T09:24:54.149Z,17.30
2018-07-11T09:27:21.253Z,16.17
2018-07-11T09:29:48.817Z,16.73
2018-07-11T09:32:16.200Z,16.00
2018-07-11T09:34:43.852Z,16.13
2018-07-11T09:37:10.998Z,15.60
2018-07-11T09:39:38.092Z,15.83
2018-07-11T09:42:05.457Z,15.23
2018-07-11T09:44:32.558Z,13.90
2018-07-11T09:46:59.673Z,13.87
2018-07-11T09:49:26.961Z,12.67
2018-07-11T09:51:54.613Z,13.27
2018-07-11T09:54:21.725Z,12.10
2018-07-11T09:56:49.016Z,11.53
2018-07-11T09:59:16.608Z,11.70
2018-07-11T10:01:44.593Z,12.33
2018-07-11T10:04:11.729Z,13.40
2018-07-11T10:06:39.441Z,11.63
2018-07-11T10:09:06.581Z,12.70
2018-07-11T10:11:33.776Z,13.00
2018-07-11T10:14:00.889Z,10.90
2018-07-11T10:16:27.992Z,12.10
2018-07-11T10:18:58.232Z,11.50
2018-07-11T10:21:25.409Z,10.43
2018-07-11T10:23:53.148Z,10.63
2018-07-11T10:26:20.301Z,9.20
2018-07-11T10:28:47.400Z,10.80
2018-07-11T10:31:14.489Z,9.60
2018-07-11T10:33:41.762Z,10.27
2018-07-11T10:36:08.832Z,9.43
2018-07-11T10:38:35.936Z,9.70
2018-07-11T10:41:03.020Z,8.20
2018-07-11T10:43:30.122Z,8.43
2018-07-11T10:45:57.214Z,7.13
2018-07-11T10:48:24.296Z,7.50
2018-07-11T10:50:51.405Z,7.57
2018-07-11T10:53:18.552Z,8.10
2018-07-11T10:55:45.709Z,7.20
2018-07-11T10:58:13.060Z,8.30
2018-07-11T11:00:40.221Z,7.50
2018-07-11T11:03:07.296Z,8.40
2018-07-11T11:05:34.385Z,8.47
2018-07-11T11:08:01.519Z,8.00
2018-07-11T11:10:28.589Z,8.00
2018-07-11T11:12:55.700Z,8.47
2018-07-11T11:15:22.793Z,7.57
2018-07-11T11:17:49.982Z,7.40
2018-07-11T11:20:17.113Z,7.67
2018-07-11T11:22:44.225Z,7.53
2018-07-11T11:25:11.351Z,7.00
2018-07-11T11:27:38.448Z,8.10
2018-07-11T11:30:05.569Z,10.50
2018-07-11T11:32:32.661Z,7.73
2018-07-11T11:35:00.608Z,6.93
2018-07-11T11:37:27.676Z,8.60
2018-07-11T11:39:54.782Z,7.60
2018-07-11T11:42:22.304Z,7.83
2018-07-11T11:44:49.620Z,7.67
2018-07-11T11:47:21.050Z,7.87
2018-07-11T11:49:48.161Z,8.73
2018-07-11T11:55:45.944Z,8.17
2018-07-11T11:58:13.040Z,8.53
2018-07-11T12:00:40.133Z,8.50
2018-07-11T12:03:07.240Z,7.80
2018-07-11T12:05:34.346Z,7.97
2018-07-11T12:08:01.552Z,8.77
2018-07-11T12:10:28.728Z,9.20
2018-07-11T12:12:55.829Z,8.77
2018-07-11T12:15:22.918Z,8.20
2018-07-11T12:17:50.084Z,7.43
2018-07-11T12:20:17.185Z,5.77
2018-07-11T12:22:44.292Z,4.90
2018-07-11T12:25:11.394Z,4.50
2018-07-11T12:27:38.544Z,4.77
2018-07-11T12:30:05.758Z,4.07
2018-07-11T12:32:32.842Z,4.10
2018-07-11T12:34:59.945Z,3.77
2018-07-11T12:37:27.082Z,4.40
2018-07-11T12:39:54.254Z,4.10
2018-07-11T12:42:21.366Z,3.50
2018-07-11T12:44:48.597Z,2.97
2018-07-11T12:47:21.221Z,3.43
2018-07-11T12:49:48.477Z,3.20
2018-07-11T12:52:15.576Z,2.83
2018-07-11T12:54:42.810Z,2.80
2018-07-11T12:57:10.241Z,2.57
2018-07-11T12:59:37.377Z,3.00
2018-07-11T13:02:04.615Z,2.40
2018-07-11T13:04:31.992Z,3.50
2018-07-11T13:06:59.100Z,2.60
2018-07-11T13:09:26.482Z,2.57
2018-07-11T13:11:53.605Z,2.37
2018-07-11T13:14:21.260Z,2.47
2018-07-11T13:16:48.480Z,2.20
2018-07-11T13:19:15.540Z,2.50
2018-07-11T13:21:42.753Z,2.40
2018-07-11T13:24:09.798Z,2.60
2018-07-11T13:26:37.010Z,2.60
2018-07-11T13:29:04.116Z,2.30
2018-07-11T13:31:31.202Z,2.73
2018-07-11T13:33:58.300Z,2.10
2018-07-11T13:36:25.408Z,2.40
2018-07-11T13:38:52.508Z,2.70
2018-07-11T13:41:19.596Z,2.60
2018-07-11T13:43:46.849Z,2.00
2018-07-11T13:46:13.987Z,2.50
2018-07-11T13:48:41.061Z,3.10
2018-07-11T13:51:08.189Z,2.20
2018-07-11T13:53:35.413Z,2.53
2018-07-11T13:56:02.595Z,2.60
2018-07-11T13:58:29.672Z,2.40
2018-07-11T14:00:56.772Z,2.50
2018-07-11T14:03:23.916Z,2.43
2018-07-11T14:05:51.029Z,2.57
2018-07-11T14:08:18.169Z,2.63
2018-07-11T14:10:45.305Z,3.03
2018-07-11T14:13:12.457Z,2.33
2018-07-11T14:15:39.608Z,2.80
2018-07-11T14:18:06.725Z,3.00
2018-07-11T14:20:33.849Z,2.80
2018-07-11T14:23:04.217Z,2.60
2018-07-11T14:25:31.880Z,3.17
2018-07-11T14:27:58.989Z,3.00
2018-07-11T14:30:26.301Z,2.90
2018-07-11T14:32:55.715Z,3.03
2018-07-11T14:35:22.832Z,2.73
2018-07-11T14:37:49.937Z,2.63
2018-07-11T14:40:18.227Z,2.97
2018-07-11T14:42:45.760Z,2.83
2018-07-11T14:45:13.013Z,2.70
2018-07-11T14:47:45.601Z,3.10
2018-07-11T14:50:12.770Z,2.67
2018-07-11T14:52:39.957Z,3.00
2018-07-11T14:55:07.057Z,2.90
2018-07-11T14:57:34.625Z,2.73
2018-07-11T15:00:01.765Z,2.83
2018-07-11T15:02:28.889Z,3.00
2018-07-11T15:04:55.997Z,2.90
2018-07-11T15:07:23.119Z,3.37
2018-07-11T15:09:50.237Z,3.27
2018-07-11T15:12:17.365Z,3.33
2018-07-11T15:14:44.589Z,3.57
2018-07-11T15:17:11.686Z,3.40
2018-07-11T15:19:38.800Z,3.23
2018-07-11T15:22:06.273Z,3.60
2018-07-11T15:24:33.356Z,3.30
2018-07-11T15:27:00.468Z,3.03
2018-07-11T15:29:27.743Z,4.37
2018-07-11T15:31:54.885Z,3.97
2018-07-11T15:34:22.007Z,4.73
2018-07-11T15:36:49.629Z,4.40
2018-07-11T15:39:17.120Z,4.30
2018-07-11T15:41:47.422Z,5.20
2018-07-11T15:44:17.664Z,5.40
2018-07-11T15:46:45.208Z,6.27
2018-07-11T15:49:12.357Z,6.50
2018-07-11T15:51:39.465Z,6.77
2018-07-11T15:54:06.573Z,6.27
2018-07-11T15:56:33.703Z,7.07
2018-07-11T15:59:03.687Z,7.67
2018-07-11T16:01:30.763Z,7.30
2018-07-11T16:03:57.881Z,7.43
2018-07-11T16:06:24.985Z,7.17
2018-07-11T16:08:52.349Z,7.67
2018-07-11T16:11:19.473Z,7.17
2018-07-11T16:13:46.683Z,7.80
2018-07-11T16:16:13.840Z,7.70
2018-07-11T16:18:40.936Z,7.90
2018-07-11T16:21:08.108Z,7.40
2018-07-11T16:23:35.209Z,6.73
2018-07-11T16:26:02.418Z,6.17
2018-07-11T16:28:29.548Z,6.73
2018-07-11T16:30:56.634Z,6.67
2018-07-11T16:33:23.895Z,6.50
2018-07-11T16:35:50.964Z,6.57
2018-07-11T16:38:18.076Z,6.27
2018-07-11T16:40:45.297Z,6.10
2018-07-11T16:43:13.592Z,6.07
2018-07-11T16:45:40.737Z,6.20
2018-07-11T16:48:07.884Z,5.47
2018-07-11T16:50:35.066Z,5.90
2018-07-11T16:53:02.832Z,6.20
2018-07-11T16:55:32.902Z,7.17
2018-07-11T16:58:00.504Z,6.03
2018-07-11T17:00:31.813Z,7.10
2018-07-11T17:03:02.270Z,7.00
2018-07-11T17:05:31.344Z,8.10
2018-07-11T17:07:59.033Z,7.70
2018-07-11T17:10:27.096Z,7.50
2018-07-11T17:13:02.196Z,8.13
2018-07-11T17:15:30.872Z,7.63
2018-07-11T17:17:58.021Z,8.20
2018-07-11T17:20:25.214Z,7.83
2018-07-11T17:22:54.406Z,8.80
2018-07-11T17:25:23.829Z,8.40
2018-07-11T17:28:01.961Z,8.73
2018-07-11T17:30:44.557Z,9.10
2018-07-11T17:33:13.004Z,9.50
2018-07-11T17:35:46.517Z,9.73
2018-07-11T17:38:13.732Z,10.77
2018-07-11T17:40:40.844Z,10.20
2018-07-11T17:43:08.568Z,11.17
2018-07-11T17:45:35.729Z,11.17
2018-07-11T17:49:08.117Z,10.30
2018-07-11T17:51:40.685Z,11.30
2018-07-11T17:54:07.884Z,11.80
2018-07-11T17:56:41.425Z,13.20
2018-07-11T17:59:08.541Z,11.63
2018-07-11T18:01:38.106Z,11.50
2018-07-11T18:04:08.739Z,13.50
2018-07-11T18:06:43.060Z,13.40
2018-07-11T18:09:11.697Z,13.80
2018-07-11T18:11:43.809Z,12.33
2018-07-11T18:14:10.979Z,13.13
2018-07-11T18:16:44.601Z,13.57
2018-07-11T18:19:17.250Z,13.73
2018-07-11T18:21:47.022Z,13.67
2018-07-11T18:24:34.695Z,14.10
2018-07-11T18:27:06.956Z,14.23
2018-07-11T18:29:39.682Z,14.27
2018-07-11T18:32:12.445Z,14.23
2018-07-11T18:34:45.269Z,14.10
2018-07-11T18:37:18.741Z,13.43
2018-07-11T18:40:00.611Z,13.70
2018-07-11T18:42:33.469Z,13.60
2018-07-11T18:45:07.121Z,13.97
2018-07-11T18:48:08.201Z,14.40
2018-07-11T18:50:42.617Z,14.47
2018-07-11T18:53:12.348Z,14.97
2018-07-11T18:55:49.034Z,14.27
2018-07-11T18:58:25.477Z,16.47
2018-07-11T19:00:59.833Z,15.47
2018-07-11T19:03:32.772Z,15.40
2018-07-11T19:06:36.092Z,15.27
2018-07-11T19:09:12.132Z,14.83
2018-07-11T19:11:42.841Z,16.53
2018-07-11T19:14:10.056Z,16.20
2018-07-11T19:16:39.596Z,16.60
2018-07-11T19:19:07.174Z,16.10
2018-07-11T19:21:39.561Z,16.40
2018-07-11T19:24:10.139Z,15.67
2018-07-11T19:26:53.533Z,15.40
2018-07-11T19:29:26.340Z,17.17
2018-07-11T19:31:58.997Z,15.57
2018-07-11T19:34:28.468Z,15.80
2018-07-11T19:36:57.573Z,14.97
2018-07-11T19:39:28.197Z,15.60
2018-07-11T19:41:56.492Z,15.47
2018-07-11T19:44:27.973Z,16.37
2018-07-11T19:46:57.161Z,15.43
2018-07-11T19:49:30.894Z,15.53
2018-07-11T19:52:03.209Z,15.83
2018-07-11T19:54:39.873Z,16.50
2018-07-11T19:57:07.093Z,16.43
2018-07-11T19:59:34.369Z,16.23
2018-07-11T20:02:01.489Z,16.63
2018-07-11T20:04:28.642Z,17.80
2018-07-11T20:06:55.792Z,17.60
2018-07-11T20:09:23.050Z,16.20
2018-07-11T20:11:50.232Z,17.30
2018-07-11T20:14:17.424Z,16.27
2018-07-11T20:16:45.076Z,17.70
2018-07-11T20:19:12.047Z,17.93
2018-07-11T20:21:39.134Z,17.20
2018-07-11T20:24:06.459Z,17.77
2018-07-11T20:26:33.565Z,18.00
2018-07-11T20:29:00.673Z,18.17
2018-07-11T20:31:27.868Z,17.70
2018-07-11T20:33:54.962Z,17.77
2018-07-11T20:36:22.123Z,17.27
2018-07-11T20:38:49.213Z,16.60
2018-07-11T20:41:16.312Z,16.83
2018-07-11T20:43:43.434Z,15.77
2018-07-11T20:46:10.608Z,15.33
2018-07-11T20:48:38.409Z,16.50
2018-07-11T20:51:05.649Z,16.07
2018-07-11T20:53:32.748Z,14.97
2018-07-11T20:55:59.869Z,15.50
2018-07-11T20:58:32.685Z,15.40
2018-07-11T21:01:05.586Z,15.47
2018-07-11T21:03:38.232Z,15.30
2018-07-11T21:08:13.745Z,15.70
2018-07-11T21:11:47.120Z,15.40
2018-07-11T21:14:27.942Z,15.73
2018-07-11T21:17:00.902Z,16.63
2018-07-11T21:19:28.026Z,16.50
2018-07-11T21:21:55.165Z,15.70
2018-07-11T21:24:22.264Z,15.70
2018-07-11T21:26:49.364Z,15.40
2018-07-11T21:29:16.481Z,15.40
2018-07-11T21:31:43.705Z,14.87
2018-07-11T21:34:10.785Z,15.43
2018-07-11T21:36:37.890Z,15.47
2018-07-11T21:39:05.477Z,15.67
2018-07-11T21:41:32.705Z,17.30
2018-07-11T21:43:59.845Z,18.17
2018-07-11T21:46:26.978Z,21.37
2018-07-11T21:48:54.101Z,25.10
2018-07-11T21:51:21.207Z,24.27
2018-07-11T21:53:48.413Z,24.23
2018-07-11T21:56:15.523Z,24.20
2018-07-11T22:01:16.310Z,24.67
2018-07-11T22:03:43.409Z,26.27
2018-07-11T22:06:10.536Z,25.70
2018-07-11T22:08:37.695Z,24.33
2018-07-11T22:11:04.830Z,25.23
2018-07-11T22:13:31.931Z,24.30
2018-07-11T22:15:59.041Z,24.67
2018-07-11T22:18:34.713Z,23.70
2018-07-11T22:21:02.199Z,23.27
2018-07-11T22:23:28.969Z,23.27
2018-07-11T22:25:55.478Z,23.40
2018-07-11T22:28:22.086Z,22.07
2018-07-11T22:30:48.728Z,22.10
2018-07-11T22:33:15.320Z,21.47
2018-07-11T22:35:42.020Z,21.63
2018-07-11T22:38:08.696Z,21.60
2018-07-11T22:40:35.797Z,22.53
2018-07-11T22:43:02.401Z,23.20
2018-07-11T22:45:29.058Z,23.53
2018-07-11T22:47:55.962Z,24.07
2018-07-11T22:50:22.557Z,24.40
2018-07-11T22:52:49.184Z,24.47
2018-07-11T22:55:15.773Z,25.13
2018-07-11T22:57:42.362Z,24.87
2018-07-11T23:00:08.961Z,25.50
2018-07-11T23:02:35.549Z,26.10
2018-07-11T23:05:02.154Z,26.40
2018-07-11T23:07:28.737Z,24.33
2018-07-11T23:09:55.349Z,25.83
2018-07-11T23:12:21.942Z,24.87
2018-07-11T23:14:48.537Z,26.00
2018-07-11T23:17:15.137Z,25.30
2018-07-11T23:19:41.725Z,25.47
2018-07-11T23:22:08.336Z,24.33
2018-07-11T23:24:34.922Z,27.13
2018-07-11T23:27:01.561Z,25.53
2018-07-11T23:29:28.162Z,25.97
2018-07-11T23:31:54.757Z,25.80
2018-07-11T23:34:21.410Z,25.60
2018-07-11T23:36:48.005Z,26.47
2018-07-11T23:39:14.757Z,26.57
2018-07-11T23:41:41.303Z,24.23
2018-07-11T23:44:07.902Z,25.60
2018-07-11T23:46:34.497Z,25.33
2018-07-11T23:49:01.096Z,25.00
2018-07-11T23:51:27.698Z,24.10
2018-07-11T23:53:54.301Z,23.37
2018-07-11T23:56:20.893Z,23.87
2018-07-11T23:58:47.800Z,24.40
